sensor_id;sensor_type;location;lat;lon;timestamp;P1;durP1;ratioP1;P2;durP2;ratioP2
74291;SDS011;62687;55.738;37.516;2022-09-02T00:00:42;1.02;;;0.30;;
74291;SDS011;62687;55.738;37.516;2022-09-02T00:03:28;0.77;;;0.20;;
74291;SDS011;62687;55.738;37.516;2022-09-02T00:06:14;1.75;;;0.40;;
74291;SDS011;62687;55.738;37.516;2022-09-02T00:08:59;0.75;;;0.38;;
74291;SDS011;62687;55.738;37.516;2022-09-02T00:11:44;1.77;;;0.20;;
74291;SDS011;62687;55.738;37.516;2022-09-02T00:14:34;1.45;;;0.10;;
74291;SDS011;62687;55.738;37.516;2022-09-02T00:17:20;0.45;;;0.10;;
74291;SDS011;62687;55.738;37.516;2022-09-02T00:20:04;0.22;;;0.00;;
74291;SDS011;62687;55.738;37.516;2022-09-02T00:22:49;1.15;;;0.10;;
74291;SDS011;62687;55.738;37.516;2022-09-02T00:25:34;0.73;;;0.20;;
74291;SDS011;62687;55.738;37.516;2022-09-02T00:28:19;1.02;;;0.30;;
74291;SDS011;62687;55.738;37.516;2022-09-02T00:31:03;1.00;;;0.10;;
74291;SDS011;62687;55.738;37.516;2022-09-02T00:33:48;1.23;;;0.30;;
74291;SDS011;62687;55.738;37.516;2022-09-02T00:36:34;0.93;;;0.10;;
74291;SDS011;62687;55.738;37.516;2022-09-02T00:39:19;1.52;;;0.28;;
74291;SDS011;62687;55.738;37.516;2022-09-02T00:42:03;0.75;;;0.28;;
74291;SDS011;62687;55.738;37.516;2022-09-02T00:44:50;1.15;;;0.40;;
74291;SDS011;62687;55.738;37.516;2022-09-02T00:47:35;0.77;;;0.20;;
74291;SDS011;62687;55.738;37.516;2022-09-02T00:50:21;0.77;;;0.20;;
74291;SDS011;62687;55.738;37.516;2022-09-02T00:53:10;0.38;;;0.10;;
74291;SDS011;62687;55.738;37.516;2022-09-02T00:55:56;1.33;;;0.20;;
74291;SDS011;62687;55.738;37.516;2022-09-02T00:58:42;0.93;;;0.30;;
74291;SDS011;62687;55.738;37.516;2022-09-02T01:03:54;0.40;;;0.10;;
74291;SDS011;62687;55.738;37.516;2022-09-02T01:06:38;0.95;;;0.43;;
74291;SDS011;62687;55.738;37.516;2022-09-02T01:09:23;0.30;;;0.10;;
74291;SDS011;62687;55.738;37.516;2022-09-02T01:12:08;1.05;;;0.50;;
74291;SDS011;62687;55.738;37.516;2022-09-02T01:14:55;0.80;;;0.20;;
74291;SDS011;62687;55.738;37.516;2022-09-02T01:17:45;0.25;;;0.10;;
74291;SDS011;62687;55.738;37.516;2022-09-02T01:20:32;0.98;;;0.10;;
74291;SDS011;62687;55.738;37.516;2022-09-02T01:23:16;0.75;;;0.13;;
74291;SDS011;62687;55.738;37.516;2022-09-02T01:26:02;2.03;;;0.20;;
74291;SDS011;62687;55.738;37.516;2022-09-02T01:28:47;0.35;;;0.10;;
74291;SDS011;62687;55.738;37.516;2022-09-02T01:31:31;0.55;;;0.10;;
74291;SDS011;62687;55.738;37.516;2022-09-02T01:34:17;0.50;;;0.20;;
74291;SDS011;62687;55.738;37.516;2022-09-02T01:37:01;0.57;;;0.20;;
74291;SDS011;62687;55.738;37.516;2022-09-02T01:39:46;0.65;;;0.15;;
74291;SDS011;62687;55.738;37.516;2022-09-02T01:42:30;0.52;;;0.20;;
74291;SDS011;62687;55.738;37.516;2022-09-02T01:45:15;0.20;;;0.05;;
74291;SDS011;62687;55.738;37.516;2022-09-02T01:48:00;0.80;;;0.10;;
74291;SDS011;62687;55.738;37.516;2022-09-02T01:50:46;0.45;;;0.10;;
74291;SDS011;62687;55.738;37.516;2022-09-02T01:53:33;0.60;;;0.10;;
74291;SDS011;62687;55.738;37.516;2022-09-02T01:56:17;0.95;;;0.10;;
74291;SDS011;62687;55.738;37.516;2022-09-02T01:59:02;0.40;;;0.10;;
74291;SDS011;62687;55.738;37.516;2022-09-02T02:04:31;1.10;;;0.30;;
74291;SDS011;62687;55.738;37.516;2022-09-02T02:07:17;0.22;;;0.10;;
74291;SDS011;62687;55.738;37.516;2022-09-02T02:10:03;1.08;;;0.30;;
74291;SDS011;62687;55.738;37.516;2022-09-02T02:12:49;0.63;;;0.20;;
74291;SDS011;62687;55.738;37.516;2022-09-02T02:15:35;0.60;;;0.20;;
74291;SDS011;62687;55.738;37.516;2022-09-02T02:18:24;0.35;;;0.10;;
74291;SDS011;62687;55.738;37.516;2022-09-02T02:21:08;0.65;;;0.10;;
74291;SDS011;62687;55.738;37.516;2022-09-02T02:23:52;0.30;;;0.10;;
74291;SDS011;62687;55.738;37.516;2022-09-02T02:26:36;0.20;;;0.10;;
74291;SDS011;62687;55.738;37.516;2022-09-02T02:29:20;0.85;;;0.20;;
74291;SDS011;62687;55.738;37.516;2022-09-02T02:32:05;0.40;;;0.15;;
74291;SDS011;62687;55.738;37.516;2022-09-02T02:34:50;0.80;;;0.10;;
74291;SDS011;62687;55.738;37.516;2022-09-02T02:37:34;1.25;;;0.20;;
74291;SDS011;62687;55.738;37.516;2022-09-02T02:40:20;1.40;;;0.22;;
74291;SDS011;62687;55.738;37.516;2022-09-02T02:43:07;0.82;;;0.20;;
74291;SDS011;62687;55.738;37.516;2022-09-02T02:45:51;0.25;;;0.00;;
74291;SDS011;62687;55.738;37.516;2022-09-02T02:48:36;0.85;;;0.20;;
74291;SDS011;62687;55.738;37.516;2022-09-02T02:51:21;2.70;;;0.20;;
74291;SDS011;62687;55.738;37.516;2022-09-02T02:54:05;0.98;;;0.28;;
74291;SDS011;62687;55.738;37.516;2022-09-02T02:56:49;1.52;;;0.20;;
74291;SDS011;62687;55.738;37.516;2022-09-02T02:59:34;0.30;;;0.10;;
74291;SDS011;62687;55.738;37.516;2022-09-02T03:02:19;0.40;;;0.10;;
74291;SDS011;62687;55.738;37.516;2022-09-02T03:05:04;0.10;;;0.00;;
74291;SDS011;62687;55.738;37.516;2022-09-02T03:07:50;1.67;;;0.30;;
74291;SDS011;62687;55.738;37.516;2022-09-02T03:10:34;1.50;;;0.20;;
74291;SDS011;62687;55.738;37.516;2022-09-02T03:13:21;0.08;;;0.00;;
74291;SDS011;62687;55.738;37.516;2022-09-02T03:16:06;0.88;;;0.20;;
74291;SDS011;62687;55.738;37.516;2022-09-02T03:18:51;0.75;;;0.20;;
74291;SDS011;62687;55.738;37.516;2022-09-02T03:21:35;1.17;;;0.15;;
74291;SDS011;62687;55.738;37.516;2022-09-02T03:24:19;0.25;;;0.00;;
74291;SDS011;62687;55.738;37.516;2022-09-02T03:27:03;1.15;;;0.20;;
74291;SDS011;62687;55.738;37.516;2022-09-02T03:29:47;1.02;;;0.20;;
74291;SDS011;62687;55.738;37.516;2022-09-02T03:32:31;1.05;;;0.10;;
74291;SDS011;62687;55.738;37.516;2022-09-02T03:35:17;1.90;;;0.35;;
74291;SDS011;62687;55.738;37.516;2022-09-02T03:38:02;1.95;;;0.10;;
74291;SDS011;62687;55.738;37.516;2022-09-02T03:40:46;0.70;;;0.10;;
74291;SDS011;62687;55.738;37.516;2022-09-02T03:43:31;2.25;;;0.20;;
74291;SDS011;62687;55.738;37.516;2022-09-02T03:46:15;3.15;;;0.40;;
74291;SDS011;62687;55.738;37.516;2022-09-02T03:49:01;1.50;;;0.10;;
74291;SDS011;62687;55.738;37.516;2022-09-02T03:51:45;2.58;;;0.13;;
74291;SDS011;62687;55.738;37.516;2022-09-02T03:54:30;0.90;;;0.10;;
74291;SDS011;62687;55.738;37.516;2022-09-02T03:57:14;0.50;;;0.10;;
74291;SDS011;62687;55.738;37.516;2022-09-02T04:00:00;0.45;;;0.10;;
74291;SDS011;62687;55.738;37.516;2022-09-02T04:02:44;1.80;;;0.30;;
74291;SDS011;62687;55.738;37.516;2022-09-02T04:05:30;1.15;;;0.28;;
74291;SDS011;62687;55.738;37.516;2022-09-02T04:08:14;0.10;;;0.00;;
74291;SDS011;62687;55.738;37.516;2022-09-02T04:11:03;5.00;;;1.20;;
74291;SDS011;62687;55.738;37.516;2022-09-02T04:13:49;0.28;;;0.10;;
74291;SDS011;62687;55.738;37.516;2022-09-02T04:16:34;1.38;;;0.30;;
74291;SDS011;62687;55.738;37.516;2022-09-02T04:19:18;0.93;;;0.10;;
74291;SDS011;62687;55.738;37.516;2022-09-02T04:22:02;2.80;;;0.50;;
74291;SDS011;62687;55.738;37.516;2022-09-02T04:24:47;1.48;;;0.20;;
74291;SDS011;62687;55.738;37.516;2022-09-02T04:27:31;1.52;;;0.22;;
74291;SDS011;62687;55.738;37.516;2022-09-02T04:33:01;0.22;;;0.08;;
74291;SDS011;62687;55.738;37.516;2022-09-02T04:35:45;1.23;;;0.30;;
74291;SDS011;62687;55.738;37.516;2022-09-02T04:38:34;0.40;;;0.10;;
74291;SDS011;62687;55.738;37.516;2022-09-02T04:41:20;0.32;;;0.10;;
74291;SDS011;62687;55.738;37.516;2022-09-02T04:44:05;2.83;;;0.20;;
74291;SDS011;62687;55.738;37.516;2022-09-02T04:46:49;0.35;;;0.10;;
74291;SDS011;62687;55.738;37.516;2022-09-02T04:49:34;3.28;;;0.17;;
74291;SDS011;62687;55.738;37.516;2022-09-02T04:52:18;0.90;;;0.10;;
74291;SDS011;62687;55.738;37.516;2022-09-02T04:55:03;0.85;;;0.20;;
74291;SDS011;62687;55.738;37.516;2022-09-02T04:57:49;1.13;;;0.25;;
74291;SDS011;62687;55.738;37.516;2022-09-02T05:00:35;1.75;;;0.17;;
74291;SDS011;62687;55.738;37.516;2022-09-02T05:03:21;1.40;;;0.40;;
74291;SDS011;62687;55.738;37.516;2022-09-02T05:06:08;0.82;;;0.25;;
74291;SDS011;62687;55.738;37.516;2022-09-02T05:08:53;1.20;;;0.10;;
74291;SDS011;62687;55.738;37.516;2022-09-02T05:11:37;1.52;;;0.30;;
74291;SDS011;62687;55.738;37.516;2022-09-02T05:14:22;2.70;;;0.47;;
74291;SDS011;62687;55.738;37.516;2022-09-02T05:17:07;0.80;;;0.20;;
74291;SDS011;62687;55.738;37.516;2022-09-02T05:19:51;2.30;;;0.70;;
74291;SDS011;62687;55.738;37.516;2022-09-02T05:22:35;0.60;;;0.22;;
74291;SDS011;62687;55.738;37.516;2022-09-02T05:25:19;0.80;;;0.20;;
74291;SDS011;62687;55.738;37.516;2022-09-02T05:28:05;0.77;;;0.20;;
74291;SDS011;62687;55.738;37.516;2022-09-02T05:30:51;0.55;;;0.10;;
74291;SDS011;62687;55.738;37.516;2022-09-02T05:33:36;1.30;;;0.32;;
74291;SDS011;62687;55.738;37.516;2022-09-02T05:36:23;2.35;;;0.32;;
74291;SDS011;62687;55.738;37.516;2022-09-02T05:39:07;3.22;;;0.55;;
74291;SDS011;62687;55.738;37.516;2022-09-02T05:41:52;3.78;;;0.40;;
74291;SDS011;62687;55.738;37.516;2022-09-02T05:44:36;3.00;;;0.40;;
74291;SDS011;62687;55.738;37.516;2022-09-02T05:47:21;1.67;;;0.40;;
74291;SDS011;62687;55.738;37.516;2022-09-02T05:50:07;4.15;;;0.63;;
74291;SDS011;62687;55.738;37.516;2022-09-02T05:52:52;1.50;;;0.20;;
74291;SDS011;62687;55.738;37.516;2022-09-02T05:55:36;1.80;;;0.30;;
74291;SDS011;62687;55.738;37.516;2022-09-02T05:58:21;1.02;;;0.20;;
74291;SDS011;62687;55.738;37.516;2022-09-02T06:01:08;0.68;;;0.30;;
74291;SDS011;62687;55.738;37.516;2022-09-02T06:03:53;0.93;;;0.52;;
74291;SDS011;62687;55.738;37.516;2022-09-02T06:06:39;1.35;;;0.40;;
74291;SDS011;62687;55.738;37.516;2022-09-02T06:09:24;4.22;;;0.40;;
74291;SDS011;62687;55.738;37.516;2022-09-02T06:15:00;0.90;;;0.20;;
74291;SDS011;62687;55.738;37.516;2022-09-02T06:17:44;1.48;;;0.35;;
74291;SDS011;62687;55.738;37.516;2022-09-02T06:20:29;3.08;;;0.38;;
74291;SDS011;62687;55.738;37.516;2022-09-02T06:23:15;2.03;;;0.30;;
74291;SDS011;62687;55.738;37.516;2022-09-02T06:26:00;2.95;;;0.40;;
74291;SDS011;62687;55.738;37.516;2022-09-02T06:28:44;3.85;;;1.33;;
74291;SDS011;62687;55.738;37.516;2022-09-02T06:31:28;3.25;;;0.70;;
74291;SDS011;62687;55.738;37.516;2022-09-02T06:34:13;4.68;;;0.40;;
74291;SDS011;62687;55.738;37.516;2022-09-02T06:36:59;1.08;;;0.43;;
74291;SDS011;62687;55.738;37.516;2022-09-02T06:39:43;0.45;;;0.10;;
74291;SDS011;62687;55.738;37.516;2022-09-02T06:42:28;1.30;;;0.30;;
74291;SDS011;62687;55.738;37.516;2022-09-02T06:45:13;1.77;;;0.40;;
74291;SDS011;62687;55.738;37.516;2022-09-02T06:47:57;0.88;;;0.28;;
74291;SDS011;62687;55.738;37.516;2022-09-02T06:50:42;1.73;;;0.30;;
74291;SDS011;62687;55.738;37.516;2022-09-02T06:53:28;1.33;;;0.25;;
74291;SDS011;62687;55.738;37.516;2022-09-02T06:56:12;1.73;;;0.43;;
74291;SDS011;62687;55.738;37.516;2022-09-02T06:58:57;1.85;;;0.40;;
74291;SDS011;62687;55.738;37.516;2022-09-02T07:01:41;1.75;;;0.22;;
74291;SDS011;62687;55.738;37.516;2022-09-02T07:07:29;1.77;;;0.70;;
74291;SDS011;62687;55.738;37.516;2022-09-02T07:10:14;2.40;;;0.52;;
74291;SDS011;62687;55.738;37.516;2022-09-02T07:12:58;2.65;;;0.70;;
74291;SDS011;62687;55.738;37.516;2022-09-02T07:15:43;10.05;;;0.75;;
74291;SDS011;62687;55.738;37.516;2022-09-02T07:18:27;1.70;;;0.50;;
74291;SDS011;62687;55.738;37.516;2022-09-02T07:21:12;2.75;;;1.15;;
74291;SDS011;62687;55.738;37.516;2022-09-02T07:23:57;1.75;;;0.50;;
74291;SDS011;62687;55.738;37.516;2022-09-02T07:26:42;1.77;;;0.30;;
74291;SDS011;62687;55.738;37.516;2022-09-02T07:32:11;4.65;;;0.50;;
74291;SDS011;62687;55.738;37.516;2022-09-02T07:34:55;0.93;;;0.13;;
74291;SDS011;62687;55.738;37.516;2022-09-02T07:37:39;0.70;;;0.30;;
74291;SDS011;62687;55.738;37.516;2022-09-02T07:40:24;2.08;;;0.85;;
74291;SDS011;62687;55.738;37.516;2022-09-02T07:43:08;2.45;;;0.40;;
74291;SDS011;62687;55.738;37.516;2022-09-02T07:45:54;1.08;;;0.32;;
74291;SDS011;62687;55.738;37.516;2022-09-02T07:48:39;2.55;;;0.38;;
74291;SDS011;62687;55.738;37.516;2022-09-02T07:51:24;24.85;;;0.90;;
74291;SDS011;62687;55.738;37.516;2022-09-02T07:54:10;2.50;;;0.45;;
74291;SDS011;62687;55.738;37.516;2022-09-02T07:56:55;3.13;;;0.30;;
74291;SDS011;62687;55.738;37.516;2022-09-02T07:59:40;0.93;;;0.30;;
74291;SDS011;62687;55.738;37.516;2022-09-02T08:02:24;2.75;;;0.40;;
74291;SDS011;62687;55.738;37.516;2022-09-02T08:05:08;1.50;;;0.22;;
74291;SDS011;62687;55.738;37.516;2022-09-02T08:07:53;0.70;;;0.10;;
74291;SDS011;62687;55.738;37.516;2022-09-02T08:10:37;0.95;;;0.30;;
74291;SDS011;62687;55.738;37.516;2022-09-02T08:13:22;1.33;;;0.28;;
74291;SDS011;62687;55.738;37.516;2022-09-02T08:16:07;0.55;;;0.10;;
74291;SDS011;62687;55.738;37.516;2022-09-02T08:18:51;3.17;;;0.10;;
74291;SDS011;62687;55.738;37.516;2022-09-02T08:21:35;1.15;;;0.20;;
74291;SDS011;62687;55.738;37.516;2022-09-02T08:24:19;0.40;;;0.05;;
74291;SDS011;62687;55.738;37.516;2022-09-02T08:26:57;1.48;;;0.38;;
74291;SDS011;62687;55.738;37.516;2022-09-02T08:29:42;1.30;;;0.03;;
74291;SDS011;62687;55.738;37.516;2022-09-02T08:32:27;4.55;;;0.20;;
74291;SDS011;62687;55.738;37.516;2022-09-02T08:35:12;0.50;;;0.20;;
74291;SDS011;62687;55.738;37.516;2022-09-02T08:37:57;9.63;;;0.38;;
74291;SDS011;62687;55.738;37.516;2022-09-02T08:40:42;1.27;;;0.20;;
74291;SDS011;62687;55.738;37.516;2022-09-02T08:46:23;1.10;;;0.10;;
74291;SDS011;62687;55.738;37.516;2022-09-02T08:49:12;1.17;;;0.20;;
74291;SDS011;62687;55.738;37.516;2022-09-02T08:52:04;0.52;;;0.20;;
74291;SDS011;62687;55.738;37.516;2022-09-02T08:54:52;1.95;;;0.50;;
74291;SDS011;62687;55.738;37.516;2022-09-02T08:57:38;1.23;;;0.10;;
74291;SDS011;62687;55.738;37.516;2022-09-02T09:00:23;1.75;;;0.30;;
74291;SDS011;62687;55.738;37.516;2022-09-02T09:18:29;2.63;;;0.50;;
74291;SDS011;62687;55.738;37.516;2022-09-02T09:21:20;5.55;;;0.40;;
74291;SDS011;62687;55.738;37.516;2022-09-02T09:24:13;1.95;;;0.30;;
74291;SDS011;62687;55.738;37.516;2022-09-02T09:27:11;2.33;;;0.70;;
74291;SDS011;62687;55.738;37.516;2022-09-02T09:29:57;5.15;;;0.25;;
74291;SDS011;62687;55.738;37.516;2022-09-02T09:32:45;4.82;;;0.60;;
74291;SDS011;62687;55.738;37.516;2022-09-02T09:35:48;3.05;;;0.43;;
74291;SDS011;62687;55.738;37.516;2022-09-02T09:38:35;3.35;;;0.20;;
74291;SDS011;62687;55.738;37.516;2022-09-02T09:41:21;3.25;;;0.52;;
74291;SDS011;62687;55.738;37.516;2022-09-02T09:44:07;4.20;;;0.32;;
74291;SDS011;62687;55.738;37.516;2022-09-02T09:46:59;1.02;;;0.40;;
74291;SDS011;62687;55.738;37.516;2022-09-02T09:49:45;2.50;;;0.30;;
74291;SDS011;62687;55.738;37.516;2022-09-02T09:52:31;1.02;;;0.10;;
74291;SDS011;62687;55.738;37.516;2022-09-02T09:55:19;2.28;;;0.25;;
74291;SDS011;62687;55.738;37.516;2022-09-02T09:58:07;0.57;;;0.10;;
74291;SDS011;62687;55.738;37.516;2022-09-02T10:00:52;2.35;;;0.20;;
74291;SDS011;62687;55.738;37.516;2022-09-02T10:03:42;4.57;;;0.22;;
74291;SDS011;62687;55.738;37.516;2022-09-02T10:06:39;1.20;;;0.38;;
74291;SDS011;62687;55.738;37.516;2022-09-02T10:09:29;3.28;;;0.65;;
74291;SDS011;62687;55.738;37.516;2022-09-02T10:12:18;0.80;;;0.20;;
74291;SDS011;62687;55.738;37.516;2022-09-02T10:15:16;1.65;;;0.50;;
74291;SDS011;62687;55.738;37.516;2022-09-02T10:18:32;1.13;;;0.30;;
74291;SDS011;62687;55.738;37.516;2022-09-02T10:30:25;0.80;;;0.32;;
74291;SDS011;62687;55.738;37.516;2022-09-02T10:36:36;0.77;;;0.28;;
74291;SDS011;62687;55.738;37.516;2022-09-02T10:42:33;1.05;;;0.30;;
74291;SDS011;62687;55.738;37.516;2022-09-02T10:57:29;5.43;;;0.20;;
74291;SDS011;62687;55.738;37.516;2022-09-02T11:00:20;4.38;;;0.60;;
74291;SDS011;62687;55.738;37.516;2022-09-02T11:03:09;0.93;;;0.22;;
74291;SDS011;62687;55.738;37.516;2022-09-02T11:08:52;4.15;;;0.73;;
74291;SDS011;62687;55.738;37.516;2022-09-02T11:11:55;2.42;;;0.63;;
74291;SDS011;62687;55.738;37.516;2022-09-02T11:15:32;0.28;;;0.10;;
74291;SDS011;62687;55.738;37.516;2022-09-02T11:17:55;0.93;;;0.10;;
74291;SDS011;62687;55.738;37.516;2022-09-02T11:21:04;5.45;;;0.75;;
74291;SDS011;62687;55.738;37.516;2022-09-02T11:27:27;6.00;;;0.57;;
74291;SDS011;62687;55.738;37.516;2022-09-02T11:30:30;4.45;;;0.30;;
74291;SDS011;62687;55.738;37.516;2022-09-02T11:36:19;6.72;;;0.70;;
74291;SDS011;62687;55.738;37.516;2022-09-02T11:39:07;0.52;;;0.30;;
74291;SDS011;62687;55.738;37.516;2022-09-02T11:42:00;2.70;;;0.45;;
74291;SDS011;62687;55.738;37.516;2022-09-02T11:45:06;5.00;;;0.43;;
74291;SDS011;62687;55.738;37.516;2022-09-02T11:48:00;5.20;;;0.40;;
74291;SDS011;62687;55.738;37.516;2022-09-02T11:54:24;3.38;;;0.98;;
74291;SDS011;62687;55.738;37.516;2022-09-02T11:57:13;3.20;;;0.70;;
74291;SDS011;62687;55.738;37.516;2022-09-02T12:00:04;4.38;;;0.70;;
74291;SDS011;62687;55.738;37.516;2022-09-02T12:02:50;6.88;;;0.65;;
74291;SDS011;62687;55.738;37.516;2022-09-02T12:17:05;2.13;;;0.30;;
74291;SDS011;62687;55.738;37.516;2022-09-02T12:19:50;0.80;;;0.40;;
74291;SDS011;62687;55.738;37.516;2022-09-02T12:22:35;2.10;;;0.30;;
74291;SDS011;62687;55.738;37.516;2022-09-02T12:28:16;4.75;;;1.02;;
74291;SDS011;62687;55.738;37.516;2022-09-02T12:31:08;2.75;;;0.28;;
74291;SDS011;62687;55.738;37.516;2022-09-02T12:33:56;3.20;;;0.30;;
74291;SDS011;62687;55.738;37.516;2022-09-02T12:42:20;4.20;;;0.30;;
74291;SDS011;62687;55.738;37.516;2022-09-02T12:45:14;4.47;;;0.40;;
74291;SDS011;62687;55.738;37.516;2022-09-02T12:48:11;5.10;;;0.45;;
74291;SDS011;62687;55.738;37.516;2022-09-02T12:50:59;0.90;;;0.28;;
74291;SDS011;62687;55.738;37.516;2022-09-02T12:53:48;4.93;;;0.63;;
74291;SDS011;62687;55.738;37.516;2022-09-02T12:56:33;1.45;;;0.32;;
74291;SDS011;62687;55.738;37.516;2022-09-02T12:59:21;7.63;;;0.73;;
74291;SDS011;62687;55.738;37.516;2022-09-02T13:05:24;2.65;;;0.20;;
74291;SDS011;62687;55.738;37.516;2022-09-02T13:08:16;1.35;;;0.20;;
74291;SDS011;62687;55.738;37.516;2022-09-02T13:17:46;3.22;;;0.50;;
74291;SDS011;62687;55.738;37.516;2022-09-02T13:24:35;1.08;;;0.38;;
74291;SDS011;62687;55.738;37.516;2022-09-02T13:27:12;1.25;;;0.30;;
74291;SDS011;62687;55.738;37.516;2022-09-02T13:33:22;1.20;;;0.40;;
74291;SDS011;62687;55.738;37.516;2022-09-02T13:36:09;1.17;;;0.35;;
74291;SDS011;62687;55.738;37.516;2022-09-02T13:39:16;3.33;;;0.63;;
74291;SDS011;62687;55.738;37.516;2022-09-02T13:42:12;2.78;;;0.65;;
74291;SDS011;62687;55.738;37.516;2022-09-02T13:45:10;3.45;;;0.57;;
74291;SDS011;62687;55.738;37.516;2022-09-02T13:47:57;3.78;;;0.50;;
74291;SDS011;62687;55.738;37.516;2022-09-02T13:50:44;2.85;;;0.70;;
74291;SDS011;62687;55.738;37.516;2022-09-02T13:53:34;2.17;;;0.52;;
74291;SDS011;62687;55.738;37.516;2022-09-02T13:56:30;3.58;;;0.38;;
74291;SDS011;62687;55.738;37.516;2022-09-02T13:59:29;3.35;;;0.55;;
74291;SDS011;62687;55.738;37.516;2022-09-02T14:02:33;2.83;;;0.63;;
74291;SDS011;62687;55.738;37.516;2022-09-02T14:05:20;2.67;;;0.30;;
74291;SDS011;62687;55.738;37.516;2022-09-02T14:08:06;5.72;;;1.52;;
74291;SDS011;62687;55.738;37.516;2022-09-02T14:10:54;3.53;;;0.60;;
74291;SDS011;62687;55.738;37.516;2022-09-02T14:13:41;1.40;;;0.70;;
74291;SDS011;62687;55.738;37.516;2022-09-02T14:16:33;2.63;;;0.40;;
74291;SDS011;62687;55.738;37.516;2022-09-02T14:22:02;1.35;;;0.30;;
74291;SDS011;62687;55.738;37.516;2022-09-02T14:24:47;1.40;;;0.38;;
74291;SDS011;62687;55.738;37.516;2022-09-02T14:27:31;1.00;;;0.30;;
74291;SDS011;62687;55.738;37.516;2022-09-02T14:30:27;3.10;;;0.40;;
74291;SDS011;62687;55.738;37.516;2022-09-02T14:39:10;2.28;;;0.82;;
74291;SDS011;62687;55.738;37.516;2022-09-02T14:41:59;4.47;;;1.50;;
74291;SDS011;62687;55.738;37.516;2022-09-02T14:44:45;4.63;;;1.05;;
74291;SDS011;62687;55.738;37.516;2022-09-02T14:47:30;1.83;;;0.80;;
74291;SDS011;62687;55.738;37.516;2022-09-02T14:50:21;4.05;;;1.30;;
74291;SDS011;62687;55.738;37.516;2022-09-02T14:53:08;7.85;;;1.90;;
74291;SDS011;62687;55.738;37.516;2022-09-02T14:55:55;4.10;;;1.02;;
74291;SDS011;62687;55.738;37.516;2022-09-02T14:58:39;3.67;;;0.70;;
74291;SDS011;62687;55.738;37.516;2022-09-02T15:01:24;1.65;;;0.73;;
74291;SDS011;62687;55.738;37.516;2022-09-02T15:04:08;2.40;;;0.70;;
74291;SDS011;62687;55.738;37.516;2022-09-02T15:06:53;5.22;;;0.77;;
74291;SDS011;62687;55.738;37.516;2022-09-02T15:09:37;5.38;;;0.57;;
74291;SDS011;62687;55.738;37.516;2022-09-02T15:12:28;6.97;;;0.70;;
74291;SDS011;62687;55.738;37.516;2022-09-02T15:15:15;2.38;;;0.52;;
74291;SDS011;62687;55.738;37.516;2022-09-02T15:20:45;4.60;;;2.33;;
74291;SDS011;62687;55.738;37.516;2022-09-02T15:23:29;8.25;;;3.20;;
74291;SDS011;62687;55.738;37.516;2022-09-02T15:28:58;4.05;;;0.98;;
74291;SDS011;62687;55.738;37.516;2022-09-02T15:31:42;5.72;;;1.48;;
74291;SDS011;62687;55.738;37.516;2022-09-02T15:34:26;6.15;;;1.10;;
74291;SDS011;62687;55.738;37.516;2022-09-02T15:37:11;4.25;;;1.00;;
74291;SDS011;62687;55.738;37.516;2022-09-02T15:39:55;2.72;;;0.52;;
74291;SDS011;62687;55.738;37.516;2022-09-02T15:42:39;8.38;;;1.20;;
74291;SDS011;62687;55.738;37.516;2022-09-02T15:48:09;4.35;;;1.08;;
74291;SDS011;62687;55.738;37.516;2022-09-02T15:50:54;5.53;;;0.70;;
74291;SDS011;62687;55.738;37.516;2022-09-02T15:53:38;5.18;;;1.20;;
74291;SDS011;62687;55.738;37.516;2022-09-02T15:56:23;9.07;;;1.30;;
74291;SDS011;62687;55.738;37.516;2022-09-02T15:59:09;6.63;;;1.73;;
74291;SDS011;62687;55.738;37.516;2022-09-02T16:02:04;4.93;;;0.80;;
74291;SDS011;62687;55.738;37.516;2022-09-02T16:04:48;2.78;;;0.90;;
74291;SDS011;62687;55.738;37.516;2022-09-02T16:07:33;6.07;;;0.90;;
74291;SDS011;62687;55.738;37.516;2022-09-02T16:10:17;4.30;;;0.95;;
74291;SDS011;62687;55.738;37.516;2022-09-02T16:13:01;6.97;;;0.82;;
74291;SDS011;62687;55.738;37.516;2022-09-02T16:15:46;2.42;;;0.80;;
74291;SDS011;62687;55.738;37.516;2022-09-02T16:18:31;5.45;;;1.00;;
74291;SDS011;62687;55.738;37.516;2022-09-02T16:21:16;3.85;;;1.00;;
74291;SDS011;62687;55.738;37.516;2022-09-02T16:24:01;7.82;;;0.77;;
74291;SDS011;62687;55.738;37.516;2022-09-02T16:26:46;2.53;;;0.60;;
74291;SDS011;62687;55.738;37.516;2022-09-02T16:29:31;2.58;;;0.50;;
74291;SDS011;62687;55.738;37.516;2022-09-02T16:32:15;3.78;;;0.80;;
74291;SDS011;62687;55.738;37.516;2022-09-02T16:34:59;5.13;;;1.35;;
74291;SDS011;62687;55.738;37.516;2022-09-02T16:37:43;3.58;;;0.40;;
74291;SDS011;62687;55.738;37.516;2022-09-02T16:40:28;4.45;;;0.90;;
74291;SDS011;62687;55.738;37.516;2022-09-02T16:43:12;4.82;;;1.83;;
74291;SDS011;62687;55.738;37.516;2022-09-02T16:45:58;3.90;;;1.00;;
74291;SDS011;62687;55.738;37.516;2022-09-02T16:48:45;8.55;;;1.35;;
74291;SDS011;62687;55.738;37.516;2022-09-02T16:51:29;2.72;;;0.75;;
74291;SDS011;62687;55.738;37.516;2022-09-02T16:54:15;4.78;;;1.23;;
74291;SDS011;62687;55.738;37.516;2022-09-02T16:57:00;4.53;;;0.90;;
74291;SDS011;62687;55.738;37.516;2022-09-02T16:59:44;4.75;;;0.70;;
74291;SDS011;62687;55.738;37.516;2022-09-02T17:02:28;1.58;;;0.50;;
74291;SDS011;62687;55.738;37.516;2022-09-02T17:05:13;4.05;;;0.65;;
74291;SDS011;62687;55.738;37.516;2022-09-02T17:08:00;6.85;;;0.70;;
74291;SDS011;62687;55.738;37.516;2022-09-02T17:10:45;7.97;;;0.90;;
74291;SDS011;62687;55.738;37.516;2022-09-02T17:13:29;3.63;;;1.00;;
74291;SDS011;62687;55.738;37.516;2022-09-02T17:16:14;6.30;;;0.98;;
74291;SDS011;62687;55.738;37.516;2022-09-02T17:18:58;2.03;;;0.60;;
74291;SDS011;62687;55.738;37.516;2022-09-02T17:21:45;1.88;;;0.50;;
74291;SDS011;62687;55.738;37.516;2022-09-02T17:24:37;3.00;;;0.73;;
74291;SDS011;62687;55.738;37.516;2022-09-02T17:27:24;5.78;;;1.40;;
74291;SDS011;62687;55.738;37.516;2022-09-02T17:30:10;5.18;;;1.60;;
74291;SDS011;62687;55.738;37.516;2022-09-02T17:32:55;2.45;;;0.95;;
74291;SDS011;62687;55.738;37.516;2022-09-02T17:35:41;2.97;;;1.20;;
74291;SDS011;62687;55.738;37.516;2022-09-02T17:38:25;2.67;;;1.20;;
74291;SDS011;62687;55.738;37.516;2022-09-02T17:41:09;2.35;;;0.45;;
74291;SDS011;62687;55.738;37.516;2022-09-02T17:44:13;1.90;;;0.40;;
74291;SDS011;62687;55.738;37.516;2022-09-02T17:47:00;2.47;;;0.50;;
74291;SDS011;62687;55.738;37.516;2022-09-02T17:49:49;1.98;;;0.40;;
74291;SDS011;62687;55.738;37.516;2022-09-02T17:52:33;2.75;;;0.50;;
74291;SDS011;62687;55.738;37.516;2022-09-02T17:55:18;2.72;;;0.85;;
74291;SDS011;62687;55.738;37.516;2022-09-02T17:58:05;4.60;;;1.13;;
74291;SDS011;62687;55.738;37.516;2022-09-02T18:00:56;5.57;;;1.55;;
74291;SDS011;62687;55.738;37.516;2022-09-02T18:03:52;5.60;;;0.90;;
74291;SDS011;62687;55.738;37.516;2022-09-02T18:06:39;2.30;;;0.50;;
74291;SDS011;62687;55.738;37.516;2022-09-02T18:09:28;1.23;;;0.50;;
74291;SDS011;62687;55.738;37.516;2022-09-02T18:12:13;2.03;;;0.70;;
74291;SDS011;62687;55.738;37.516;2022-09-02T18:14:58;2.10;;;0.40;;
74291;SDS011;62687;55.738;37.516;2022-09-02T18:17:48;2.70;;;0.60;;
74291;SDS011;62687;55.738;37.516;2022-09-02T18:20:39;1.55;;;0.50;;
74291;SDS011;62687;55.738;37.516;2022-09-02T18:29:45;3.13;;;0.50;;
74291;SDS011;62687;55.738;37.516;2022-09-02T18:45:10;1.85;;;0.70;;
74291;SDS011;62687;55.738;37.516;2022-09-02T18:48:07;2.72;;;0.82;;
74291;SDS011;62687;55.738;37.516;2022-09-02T18:53:29;3.30;;;1.00;;
74291;SDS011;62687;55.738;37.516;2022-09-02T18:56:16;2.78;;;0.70;;
74291;SDS011;62687;55.738;37.516;2022-09-02T18:59:08;6.55;;;0.77;;